Terminal Aerodrome Forecast
Issued by NWS

Home | Current Version | Previous Version | Text Only | Print | Product List | Glossary On
Versions: 1 2 3 4 5 6 7 8 9 10 11 12 13 14 15 16 17 18
000
FTUS43 KGRB 210500
TAFATW
TAF
KATW 210525Z 2106/2206 36010KT P6SM BKN045
     FM211000 36009KT P6SM SCT018 BKN040
     FM211700 03012KT P6SM SCT040
     FM212300 05007KT P6SM SKC=

USA.gov is the U.S. government's official web portal to all federal, state and local government web resources and services.